createdAt,value
2019-06-27T00:00:06.371Z,28.43
2019-06-27T00:01:06.360Z,28.43
2019-06-27T00:02:06.336Z,28.43
2019-06-27T00:03:11.351Z,28.41
2019-06-27T00:04:06.317Z,28.40
2019-06-27T00:05:06.321Z,28.41
2019-06-27T00:06:06.292Z,28.41
2019-06-27T00:07:06.303Z,28.43
2019-06-27T00:08:06.282Z,28.40
2019-06-27T00:09:06.265Z,28.34
2019-06-27T00:10:06.266Z,28.29
2019-06-27T00:11:06.431Z,28.31
2019-06-27T00:12:06.234Z,28.29
2019-06-27T00:13:06.230Z,28.27
2019-06-27T00:14:11.256Z,28.12
2019-06-27T00:15:06.222Z,28.11
2019-06-27T00:16:06.191Z,28.15
2019-06-27T00:17:06.176Z,28.15
2019-06-27T00:18:06.175Z,28.15
2019-06-27T00:19:06.154Z,28.12
2019-06-27T00:20:06.174Z,28.15
2019-06-27T00:21:06.142Z,28.11
2019-06-27T00:22:06.128Z,28.07
2019-06-27T00:23:06.110Z,28.04
2019-06-27T00:24:06.107Z,28.00
2019-06-27T00:25:11.131Z,27.94
2019-06-27T00:26:06.075Z,27.96
2019-06-27T00:27:06.071Z,27.96
2019-06-27T00:28:06.070Z,27.94
2019-06-27T00:29:06.046Z,27.93
2019-06-27T00:30:06.073Z,27.96
2019-06-27T00:31:06.033Z,27.82
2019-06-27T00:32:06.012Z,27.81
2019-06-27T00:33:06.002Z,27.88
2019-06-27T00:34:06.000Z,27.81
2019-06-27T00:35:05.982Z,27.77
2019-06-27T00:36:11.007Z,27.82
2019-06-27T00:37:05.973Z,27.74
2019-06-27T00:38:05.955Z,27.78
2019-06-27T00:39:05.948Z,27.66
2019-06-27T00:40:05.939Z,27.70
2019-06-27T00:41:05.947Z,27.67
2019-06-27T00:42:05.917Z,27.72
2019-06-27T00:43:05.892Z,27.81
2019-06-27T00:44:05.880Z,27.57
2019-06-27T00:45:05.871Z,27.62
2019-06-27T00:46:05.892Z,27.67
2019-06-27T00:47:10.872Z,27.66
2019-06-27T00:48:05.860Z,27.66
2019-06-27T00:49:05.826Z,27.60
2019-06-27T00:50:05.837Z,27.66
2019-06-27T00:51:05.838Z,27.59
2019-06-27T00:52:05.823Z,27.57
2019-06-27T00:53:05.791Z,27.60
2019-06-27T00:54:05.791Z,27.60
2019-06-27T00:55:05.769Z,27.44
2019-06-27T00:56:05.830Z,27.44
2019-06-27T00:57:14.041Z,27.43
2019-06-27T00:58:11.765Z,27.49
2019-06-27T00:59:05.728Z,27.36
2019-06-27T01:00:05.766Z,27.40
2019-06-27T01:01:05.739Z,27.34
2019-06-27T01:02:05.684Z,27.29
2019-06-27T01:03:05.686Z,27.37
2019-06-27T01:04:05.665Z,27.22
2019-06-27T01:05:05.688Z,27.28
2019-06-27T01:06:05.670Z,27.24
2019-06-27T01:07:05.632Z,27.24
2019-06-27T01:08:05.625Z,27.25
2019-06-27T01:09:10.643Z,27.18
2019-06-27T01:10:05.626Z,27.22
2019-06-27T01:11:05.621Z,27.18
2019-06-27T01:12:05.597Z,27.19
2019-06-27T01:13:05.569Z,27.10
2019-06-27T01:14:05.556Z,27.14
2019-06-27T01:15:05.570Z,27.17
2019-06-27T01:16:05.603Z,27.10
2019-06-27T01:17:05.535Z,27.14
2019-06-27T01:18:05.537Z,27.09
2019-06-27T01:19:05.503Z,27.02
2019-06-27T01:20:10.527Z,26.99
2019-06-27T01:21:05.498Z,26.95
2019-06-27T01:22:05.485Z,26.97
2019-06-27T01:23:05.457Z,27.03
2019-06-27T01:24:05.449Z,26.92
2019-06-27T01:25:05.441Z,26.97
2019-06-27T01:26:05.425Z,26.87
2019-06-27T01:27:05.434Z,26.88
2019-06-27T01:28:05.421Z,26.88
2019-06-27T01:29:05.403Z,26.91
2019-06-27T01:30:05.386Z,26.88
2019-06-27T01:31:10.412Z,26.82
2019-06-27T01:32:05.373Z,26.85
2019-06-27T01:33:05.357Z,26.82
2019-06-27T01:34:05.359Z,26.76
2019-06-27T01:35:05.337Z,26.70
2019-06-27T01:36:05.374Z,26.73
2019-06-27T01:37:05.319Z,26.70
2019-06-27T01:38:05.299Z,26.65
2019-06-27T01:39:05.295Z,26.70
2019-06-27T01:40:05.275Z,26.58
2019-06-27T01:41:05.283Z,26.55
2019-06-27T01:42:10.297Z,26.66
2019-06-27T01:43:05.239Z,26.66
2019-06-27T01:44:05.243Z,26.58
2019-06-27T01:45:05.236Z,26.54
2019-06-27T01:46:05.233Z,26.66
2019-06-27T01:47:05.211Z,26.55
2019-06-27T01:48:05.184Z,26.57
2019-06-27T01:49:05.171Z,26.45
2019-06-27T01:50:05.163Z,26.45
2019-06-27T01:51:05.159Z,26.50
2019-06-27T01:52:05.152Z,26.47
2019-06-27T01:53:10.151Z,26.55
2019-06-27T01:54:05.115Z,26.43
2019-06-27T01:55:05.109Z,26.44
2019-06-27T01:56:05.094Z,26.45
2019-06-27T01:57:05.103Z,26.45
2019-06-27T01:58:05.084Z,26.39
2019-06-27T01:59:05.062Z,26.44
2019-06-27T02:00:05.059Z,26.40
2019-06-27T02:01:05.045Z,26.36
2019-06-27T02:02:05.041Z,26.33
2019-06-27T02:03:05.039Z,26.33
2019-06-27T02:04:10.038Z,26.43
2019-06-27T02:05:04.995Z,26.39
2019-06-27T02:06:04.989Z,26.43
2019-06-27T02:07:05.004Z,26.35
2019-06-27T02:08:05.802Z,26.36
2019-06-27T02:09:04.991Z,26.39
2019-06-27T02:10:05.012Z,26.35
2019-06-27T02:11:05.013Z,26.35
2019-06-27T02:12:04.982Z,26.33
2019-06-27T02:13:05.004Z,26.25
2019-06-27T02:14:04.919Z,26.21
2019-06-27T02:15:09.921Z,26.18
2019-06-27T02:16:04.884Z,26.23
2019-06-27T02:17:04.863Z,26.20
2019-06-27T02:18:04.862Z,26.23
2019-06-27T02:19:04.852Z,26.20
2019-06-27T02:20:04.849Z,26.18
2019-06-27T02:21:04.825Z,26.20
2019-06-27T02:22:04.808Z,26.13
2019-06-27T02:23:04.809Z,26.05
2019-06-27T02:24:04.795Z,26.09
2019-06-27T02:25:04.792Z,25.94
2019-06-27T02:26:09.814Z,26.07
2019-06-27T02:27:04.759Z,26.07
2019-06-27T02:28:04.877Z,26.09
2019-06-27T02:29:04.732Z,26.05
2019-06-27T02:30:04.735Z,26.09
2019-06-27T02:31:04.725Z,25.98
2019-06-27T02:32:04.705Z,25.92
2019-06-27T02:33:04.724Z,25.92
2019-06-27T02:34:06.730Z,25.95
2019-06-27T02:35:04.691Z,25.97
2019-06-27T02:36:04.669Z,25.95
2019-06-27T02:37:09.760Z,25.92
2019-06-27T02:38:04.671Z,25.87
2019-06-27T02:39:04.655Z,25.82
2019-06-27T02:40:04.619Z,25.83
2019-06-27T02:41:04.606Z,25.83
2019-06-27T02:42:04.598Z,25.77
2019-06-27T02:43:04.605Z,25.76
2019-06-27T02:44:04.584Z,25.77
2019-06-27T02:45:04.575Z,25.76
2019-06-27T02:46:04.554Z,25.75
2019-06-27T02:47:04.547Z,25.69
2019-06-27T02:48:09.573Z,25.72
2019-06-27T02:49:04.519Z,25.75
2019-06-27T02:50:04.526Z,25.70
2019-06-27T02:51:04.499Z,25.72
2019-06-27T02:52:04.497Z,25.75
2019-06-27T02:53:04.495Z,25.69
2019-06-27T02:54:04.474Z,25.67
2019-06-27T02:55:04.459Z,25.76
2019-06-27T02:56:04.455Z,25.64
2019-06-27T02:57:04.445Z,25.70
2019-06-27T02:58:27.994Z,25.73
2019-06-27T02:59:10.464Z,25.70
2019-06-27T03:00:04.421Z,25.62
2019-06-27T03:01:04.397Z,25.55
2019-06-27T03:02:04.405Z,25.51
2019-06-27T03:03:04.369Z,25.47
2019-06-27T03:04:04.386Z,25.58
2019-06-27T03:05:04.355Z,25.55
2019-06-27T03:06:04.342Z,25.58
2019-06-27T03:07:04.345Z,25.45
2019-06-27T03:08:04.331Z,25.35
2019-06-27T03:09:04.315Z,25.43
2019-06-27T03:10:09.324Z,25.54
2019-06-27T03:11:04.283Z,25.57
2019-06-27T03:12:04.317Z,25.50
2019-06-27T03:13:04.301Z,25.57
2019-06-27T03:14:04.272Z,25.45
2019-06-27T03:15:04.238Z,25.50
2019-06-27T03:16:04.227Z,25.45
2019-06-27T03:17:04.228Z,25.42
2019-06-27T03:18:04.216Z,25.42
2019-06-27T03:19:04.216Z,25.38
2019-06-27T03:20:04.204Z,25.28
2019-06-27T03:21:09.193Z,25.28
2019-06-27T03:22:05.843Z,25.25
2019-06-27T03:23:04.175Z,25.30
2019-06-27T03:24:04.160Z,25.35
2019-06-27T03:25:04.153Z,25.28
2019-06-27T03:26:04.135Z,25.28
2019-06-27T03:27:04.128Z,25.28
2019-06-27T03:28:04.095Z,25.17
2019-06-27T03:29:04.112Z,25.20
2019-06-27T03:30:04.098Z,25.14
2019-06-27T03:31:04.126Z,25.13
2019-06-27T03:32:09.127Z,25.18
2019-06-27T03:33:04.056Z,25.15
2019-06-27T03:34:04.047Z,25.14
2019-06-27T03:35:04.042Z,25.20
2019-06-27T03:36:04.086Z,25.10
2019-06-27T03:37:04.007Z,25.14
2019-06-27T03:38:03.987Z,25.18
2019-06-27T03:39:03.996Z,25.08
2019-06-27T03:40:03.969Z,25.21
2019-06-27T03:41:03.973Z,25.18
2019-06-27T03:42:03.961Z,25.25
2019-06-27T03:43:09.117Z,25.15
2019-06-27T03:44:03.960Z,25.17
2019-06-27T03:45:03.939Z,25.23
2019-06-27T03:46:03.909Z,25.14
2019-06-27T03:47:03.892Z,25.09
2019-06-27T03:48:03.885Z,25.18
2019-06-27T03:49:03.921Z,25.20
2019-06-27T03:50:03.860Z,25.15
2019-06-27T03:51:03.857Z,25.10
2019-06-27T03:52:03.850Z,25.09
2019-06-27T03:53:03.829Z,24.99
2019-06-27T03:54:08.929Z,24.98
2019-06-27T03:55:03.811Z,24.95
2019-06-27T03:56:03.792Z,24.88
2019-06-27T03:57:03.834Z,24.96
2019-06-27T03:58:03.794Z,24.91
2019-06-27T03:59:12.267Z,24.88
2019-06-27T04:00:04.772Z,24.90
2019-06-27T04:01:03.746Z,24.93
2019-06-27T04:02:03.737Z,24.95
2019-06-27T04:03:03.713Z,24.98
2019-06-27T04:04:03.701Z,25.02
2019-06-27T04:05:08.739Z,24.93
2019-06-27T04:06:03.699Z,24.96
2019-06-27T04:07:03.680Z,24.96
2019-06-27T04:08:03.681Z,24.77
2019-06-27T04:09:03.666Z,24.81
2019-06-27T04:10:03.699Z,24.77
2019-06-27T04:11:03.639Z,24.80
2019-06-27T04:12:03.623Z,24.69
2019-06-27T04:13:03.628Z,24.78
2019-06-27T04:14:03.615Z,24.78
2019-06-27T04:15:03.603Z,24.85
2019-06-27T04:16:08.600Z,24.80
2019-06-27T04:17:03.596Z,24.76
2019-06-27T04:18:03.565Z,24.80
2019-06-27T04:19:03.543Z,24.83
2019-06-27T04:20:03.539Z,24.80
2019-06-27T04:21:03.526Z,24.80
2019-06-27T04:22:03.514Z,24.76
2019-06-27T04:23:03.504Z,24.81
2019-06-27T04:24:03.504Z,24.85
2019-06-27T04:25:03.530Z,24.76
2019-06-27T04:26:03.471Z,24.80
2019-06-27T04:27:08.495Z,24.76
2019-06-27T04:28:03.442Z,24.73
2019-06-27T04:29:03.450Z,24.76
2019-06-27T04:30:03.434Z,24.83
2019-06-27T04:31:03.412Z,24.81
2019-06-27T04:32:03.401Z,24.81
2019-06-27T04:33:03.390Z,24.83
2019-06-27T04:34:03.402Z,24.77
2019-06-27T04:35:03.386Z,24.76
2019-06-27T04:36:03.376Z,24.62
2019-06-27T04:37:03.373Z,24.62
2019-06-27T04:38:08.359Z,24.61
2019-06-27T04:39:03.345Z,24.64
2019-06-27T04:40:03.350Z,24.67
2019-06-27T04:41:03.307Z,24.67
2019-06-27T04:42:03.293Z,24.77
2019-06-27T04:43:05.827Z,24.81
2019-06-27T04:44:03.279Z,24.78
2019-06-27T04:45:03.295Z,24.77
2019-06-27T04:46:03.243Z,24.81
2019-06-27T04:47:03.243Z,24.81
2019-06-27T04:48:03.256Z,24.87
2019-06-27T04:49:12.944Z,24.88
2019-06-27T04:50:04.262Z,24.80
2019-06-27T04:51:03.198Z,24.83
2019-06-27T04:52:03.180Z,24.83
2019-06-27T04:53:03.178Z,24.84
2019-06-27T04:54:03.163Z,24.80
2019-06-27T04:55:04.276Z,24.81
2019-06-27T04:56:03.160Z,24.84
2019-06-27T04:57:03.143Z,24.83
2019-06-27T04:58:03.120Z,24.85
2019-06-27T04:59:03.100Z,24.83
2019-06-27T05:00:08.136Z,24.80
2019-06-27T05:01:03.114Z,24.84
2019-06-27T05:02:03.066Z,24.80
2019-06-27T05:03:03.057Z,24.77
2019-06-27T05:04:03.065Z,24.73
2019-06-27T05:05:03.080Z,24.76
2019-06-27T05:06:03.035Z,24.71
2019-06-27T05:07:03.030Z,24.68
2019-06-27T05:08:03.001Z,24.77
2019-06-27T05:09:02.992Z,24.71
2019-06-27T05:10:02.990Z,24.71
2019-06-27T05:11:08.014Z,24.76
2019-06-27T05:12:02.966Z,24.80
2019-06-27T05:13:02.955Z,24.78
2019-06-27T05:14:02.964Z,24.87
2019-06-27T05:15:02.924Z,24.88
2019-06-27T05:16:02.953Z,24.90
2019-06-27T05:17:02.934Z,24.96
2019-06-27T05:18:02.918Z,24.90
2019-06-27T05:19:02.887Z,24.83
2019-06-27T05:20:03.470Z,24.83
2019-06-27T05:21:02.889Z,24.76
2019-06-27T05:22:07.874Z,24.64
2019-06-27T05:23:02.861Z,24.71
2019-06-27T05:24:02.931Z,24.71
2019-06-27T05:25:02.819Z,24.76
2019-06-27T05:26:02.817Z,24.69
2019-06-27T05:27:02.807Z,24.67
2019-06-27T05:28:02.801Z,24.71
2019-06-27T05:29:02.777Z,24.76
2019-06-27T05:30:09.377Z,24.77
2019-06-27T05:31:03.772Z,24.77
2019-06-27T05:32:02.738Z,24.67
2019-06-27T05:33:07.756Z,24.71
2019-06-27T05:34:02.732Z,24.78
2019-06-27T05:35:02.737Z,24.69
2019-06-27T05:36:02.766Z,24.78
2019-06-27T05:37:02.685Z,24.80
2019-06-27T05:38:02.674Z,24.81
2019-06-27T05:39:02.661Z,24.84
2019-06-27T05:40:02.669Z,24.90
2019-06-27T05:41:02.671Z,24.85
2019-06-27T05:42:02.642Z,24.96
2019-06-27T05:43:02.615Z,24.91
2019-06-27T05:44:07.634Z,24.90
2019-06-27T05:45:02.601Z,24.95
2019-06-27T05:46:02.605Z,24.96
2019-06-27T05:47:02.610Z,24.93
2019-06-27T05:48:02.564Z,24.95
2019-06-27T05:49:02.552Z,25.03
2019-06-27T05:50:02.540Z,25.00
2019-06-27T05:51:02.557Z,25.06
2019-06-27T05:52:02.548Z,25.17
2019-06-27T05:53:02.554Z,25.10
2019-06-27T05:54:02.499Z,25.13
2019-06-27T05:55:07.509Z,25.13
2019-06-27T05:56:02.687Z,25.09
2019-06-27T05:57:02.468Z,25.08
2019-06-27T05:58:02.626Z,25.14
2019-06-27T05:59:02.502Z,25.13
2019-06-27T06:00:02.428Z,25.14
2019-06-27T06:01:02.437Z,25.14
2019-06-27T06:02:02.426Z,25.10
2019-06-27T06:03:02.452Z,25.21
2019-06-27T06:04:02.412Z,25.24
2019-06-27T06:05:02.372Z,25.09
2019-06-27T06:06:07.517Z,25.05
2019-06-27T06:07:02.487Z,25.14
2019-06-27T06:08:02.341Z,25.14
2019-06-27T06:09:02.348Z,25.10
2019-06-27T06:10:02.346Z,25.08
2019-06-27T06:11:02.312Z,25.24
2019-06-27T06:12:02.307Z,25.17
2019-06-27T06:13:02.316Z,25.20
2019-06-27T06:14:02.548Z,25.24
2019-06-27T06:15:02.278Z,25.25
2019-06-27T06:16:02.266Z,25.36
2019-06-27T06:17:07.359Z,25.32
2019-06-27T06:18:02.245Z,25.39
2019-06-27T06:19:02.232Z,25.36
2019-06-27T06:20:02.221Z,25.42
2019-06-27T06:21:02.208Z,25.46
2019-06-27T06:22:02.208Z,25.39
2019-06-27T06:23:02.175Z,25.51
2019-06-27T06:24:02.319Z,25.52
2019-06-27T06:25:02.188Z,25.52
2019-06-27T06:26:02.238Z,25.52
2019-06-27T06:27:02.165Z,25.62
2019-06-27T06:28:07.145Z,25.64
2019-06-27T06:29:02.111Z,25.65
2019-06-27T06:30:02.110Z,25.67
2019-06-27T06:31:02.092Z,25.75
2019-06-27T06:32:02.161Z,25.70
2019-06-27T06:33:02.111Z,25.87
2019-06-27T06:34:02.107Z,25.95
2019-06-27T06:35:02.047Z,25.92
2019-06-27T06:36:02.043Z,26.06
2019-06-27T06:37:02.053Z,26.12
2019-06-27T06:38:02.016Z,26.23
2019-06-27T06:39:07.039Z,26.30
2019-06-27T06:40:02.003Z,26.54
2019-06-27T06:41:01.987Z,26.85
2019-06-27T06:42:01.994Z,27.02
2019-06-27T06:43:01.988Z,27.22
2019-06-27T06:44:01.952Z,27.49
2019-06-27T06:45:02.304Z,27.63
2019-06-27T06:46:01.932Z,27.62
2019-06-27T06:47:01.929Z,27.70
2019-06-27T06:48:01.924Z,27.67
2019-06-27T06:49:01.933Z,27.81
2019-06-27T06:50:06.913Z,27.96
2019-06-27T06:51:01.890Z,28.21
2019-06-27T06:52:01.874Z,27.88
2019-06-27T06:53:01.853Z,27.62
2019-06-27T06:54:02.202Z,27.47
2019-06-27T06:55:02.004Z,27.32
2019-06-27T06:56:01.831Z,27.24
2019-06-27T06:57:01.833Z,27.29
2019-06-27T06:58:01.834Z,27.46
2019-06-27T06:59:01.862Z,27.46
2019-06-27T07:00:01.792Z,27.59
2019-06-27T07:01:06.790Z,27.47
2019-06-27T07:02:01.772Z,27.27
2019-06-27T07:03:01.745Z,27.25
2019-06-27T07:04:01.758Z,27.25
2019-06-27T07:05:01.728Z,27.10
2019-06-27T07:06:01.742Z,27.14
2019-06-27T07:07:01.768Z,26.99
2019-06-27T07:08:01.698Z,26.99
2019-06-27T07:09:01.684Z,26.94
2019-06-27T07:10:01.667Z,26.84
2019-06-27T07:11:01.658Z,26.91
2019-06-27T07:12:06.721Z,26.91
2019-06-27T07:13:01.666Z,26.82
2019-06-27T07:14:01.640Z,26.91
2019-06-27T07:15:01.641Z,26.89
2019-06-27T07:16:01.606Z,26.89
2019-06-27T07:17:01.686Z,26.81
2019-06-27T07:18:01.603Z,26.95
2019-06-27T07:19:01.571Z,26.97
2019-06-27T07:20:01.750Z,26.89
2019-06-27T07:21:01.751Z,26.88
2019-06-27T07:22:01.538Z,26.94
2019-06-27T07:23:06.584Z,26.94
2019-06-27T07:24:01.551Z,26.91
2019-06-27T07:25:01.515Z,26.85
2019-06-27T07:26:01.524Z,26.87
2019-06-27T07:27:02.388Z,26.89
2019-06-27T07:28:01.916Z,26.84
2019-06-27T07:29:01.642Z,26.87
2019-06-27T07:30:01.576Z,26.97
2019-06-27T07:31:13.789Z,26.84
2019-06-27T07:32:02.427Z,27.00
2019-06-27T07:33:01.511Z,26.97
2019-06-27T07:34:06.435Z,27.00
2019-06-27T07:35:01.451Z,27.04
2019-06-27T07:36:01.462Z,27.00
2019-06-27T07:37:01.397Z,26.95
2019-06-27T07:38:01.377Z,26.99
2019-06-27T07:39:01.355Z,26.87
2019-06-27T07:40:01.339Z,26.91
2019-06-27T07:41:01.336Z,26.88
2019-06-27T07:42:01.338Z,26.95
2019-06-27T07:43:01.332Z,26.97
2019-06-27T07:44:01.335Z,26.85
2019-06-27T07:45:06.338Z,27.06
2019-06-27T07:46:01.281Z,27.00
2019-06-27T07:47:01.285Z,27.00
2019-06-27T07:48:01.317Z,27.07
2019-06-27T07:49:01.245Z,26.97
2019-06-27T07:50:01.233Z,26.99
2019-06-27T07:51:01.270Z,27.06
2019-06-27T07:52:01.235Z,26.95
2019-06-27T07:53:01.235Z,26.99
2019-06-27T07:54:01.200Z,26.91
2019-06-27T07:55:01.197Z,26.82
2019-06-27T07:56:06.195Z,26.95
2019-06-27T07:57:01.192Z,26.89
2019-06-27T07:58:01.162Z,26.89
2019-06-27T07:59:01.170Z,26.94
2019-06-27T08:00:01.244Z,26.92
2019-06-27T08:01:01.121Z,26.87
2019-06-27T08:02:01.111Z,26.97
2019-06-27T08:03:01.101Z,27.00
2019-06-27T08:04:01.083Z,26.99
2019-06-27T08:05:01.082Z,26.99
2019-06-27T08:06:01.096Z,26.92
2019-06-27T08:07:06.081Z,27.04
2019-06-27T08:08:01.428Z,27.14
2019-06-27T08:09:01.198Z,27.07
2019-06-27T08:10:01.052Z,27.14
2019-06-27T08:11:01.015Z,27.19
2019-06-27T08:12:01.905Z,27.22
2019-06-27T08:13:01.910Z,27.17
2019-06-27T08:14:00.984Z,27.22
2019-06-27T08:15:01.030Z,27.31
2019-06-27T08:16:00.962Z,27.36
2019-06-27T08:17:00.949Z,27.34
2019-06-27T08:18:05.975Z,27.36
2019-06-27T08:19:00.933Z,27.50
2019-06-27T08:20:00.916Z,27.46
2019-06-27T08:21:00.903Z,27.44
2019-06-27T08:22:00.891Z,27.54
2019-06-27T08:23:00.894Z,27.60
2019-06-27T08:24:00.905Z,27.46
2019-06-27T08:25:00.871Z,27.36
2019-06-27T08:26:01.419Z,27.44
2019-06-27T08:27:00.884Z,27.43
2019-06-27T08:28:00.855Z,27.49
2019-06-27T08:29:05.848Z,27.43
2019-06-27T08:30:00.801Z,27.49
2019-06-27T08:31:00.789Z,27.47
2019-06-27T08:32:00.798Z,27.44
2019-06-27T08:33:00.764Z,27.46
2019-06-27T08:34:00.764Z,27.43
2019-06-27T08:35:00.765Z,27.28
2019-06-27T08:36:00.735Z,27.36
2019-06-27T08:37:00.724Z,27.44
2019-06-27T08:38:00.709Z,27.54
2019-06-27T08:39:00.726Z,27.55
2019-06-27T08:40:05.779Z,27.67
2019-06-27T08:41:00.684Z,27.57
2019-06-27T08:42:00.695Z,27.60
2019-06-27T08:43:00.680Z,27.63
2019-06-27T08:44:00.666Z,27.75
2019-06-27T08:45:00.647Z,27.79
2019-06-27T08:46:00.671Z,27.74
2019-06-27T08:47:00.618Z,27.74
2019-06-27T08:48:00.606Z,27.81
2019-06-27T08:49:00.610Z,27.96
2019-06-27T08:50:00.762Z,27.94
2019-06-27T08:51:05.613Z,28.03
2019-06-27T08:52:00.570Z,28.06
2019-06-27T08:53:01.596Z,28.02
2019-06-27T08:54:00.552Z,28.11
2019-06-27T08:55:00.545Z,28.21
2019-06-27T08:56:00.529Z,28.19
2019-06-27T08:57:00.554Z,28.07
2019-06-27T08:58:00.506Z,28.07
2019-06-27T08:59:00.497Z,28.24
2019-06-27T09:00:00.480Z,28.12
2019-06-27T09:01:00.475Z,28.15
2019-06-27T09:02:09.257Z,28.31
2019-06-27T09:03:00.440Z,28.36
2019-06-27T09:04:00.441Z,28.41
2019-06-27T09:05:00.425Z,28.48
2019-06-27T09:06:00.410Z,28.44
2019-06-27T09:07:00.499Z,28.40
2019-06-27T09:08:00.489Z,28.33
2019-06-27T09:09:00.413Z,28.25
2019-06-27T09:10:00.379Z,28.31
2019-06-27T09:11:00.361Z,28.39
2019-06-27T09:12:00.367Z,28.41
2019-06-27T09:13:05.394Z,28.39
2019-06-27T09:14:00.324Z,28.44
2019-06-27T09:15:00.335Z,28.49
2019-06-27T09:16:00.297Z,28.48
2019-06-27T09:17:00.294Z,28.44
2019-06-27T09:18:00.280Z,28.51
2019-06-27T09:19:00.268Z,28.54
2019-06-27T09:20:00.278Z,28.56
2019-06-27T09:21:00.264Z,28.61
2019-06-27T09:22:00.231Z,28.61
2019-06-27T09:23:00.264Z,28.55
2019-06-27T09:24:05.234Z,28.61
2019-06-27T09:25:00.221Z,28.59
2019-06-27T09:26:00.208Z,28.73
2019-06-27T09:27:00.225Z,28.70
2019-06-27T09:28:00.171Z,28.77
2019-06-27T09:29:00.175Z,28.85
2019-06-27T09:30:00.180Z,28.77
2019-06-27T09:31:00.149Z,28.85
2019-06-27T09:32:00.150Z,28.81
2019-06-27T09:33:00.162Z,28.83
2019-06-27T09:34:00.118Z,28.92
2019-06-27T09:35:05.144Z,28.95
2019-06-27T09:36:00.101Z,29.05
2019-06-27T09:37:00.101Z,29.12
2019-06-27T09:38:00.077Z,29.33
2019-06-27T09:39:00.051Z,29.43
2019-06-27T09:40:00.083Z,29.74
2019-06-27T09:41:00.040Z,29.92
2019-06-27T09:42:00.019Z,30.05
2019-06-27T09:43:00.012Z,30.22
2019-06-27T09:44:00.007Z,30.37
2019-06-27T09:45:00.018Z,30.57
2019-06-27T09:46:05.004Z,30.57
2019-06-27T09:46:59.993Z,30.49
2019-06-27T09:47:59.961Z,30.49
2019-06-27T09:48:59.959Z,30.38
2019-06-27T09:49:59.950Z,30.34
2019-06-27T09:50:59.952Z,30.42
2019-06-27T09:51:59.931Z,30.57
2019-06-27T09:52:59.904Z,30.62
2019-06-27T09:53:59.892Z,30.61
2019-06-27T09:54:59.902Z,30.62
2019-06-27T09:55:59.880Z,30.51
2019-06-27T09:57:04.881Z,30.38
2019-06-27T09:57:59.861Z,30.37
2019-06-27T09:58:59.843Z,30.35
2019-06-27T09:59:59.851Z,30.20
2019-06-27T10:00:59.833Z,30.05
2019-06-27T10:01:59.846Z,29.97
2019-06-27T10:02:59.797Z,29.92
2019-06-27T10:03:59.795Z,29.85
2019-06-27T10:04:59.803Z,29.87
2019-06-27T10:05:59.764Z,29.85
2019-06-27T10:06:59.780Z,29.85
2019-06-27T10:08:04.774Z,30.00
2019-06-27T10:08:59.741Z,29.89
2019-06-27T10:09:59.729Z,30.00
2019-06-27T10:10:59.729Z,30.01
2019-06-27T10:11:59.715Z,29.95
2019-06-27T10:12:59.686Z,29.86
2019-06-27T10:13:59.692Z,29.98
2019-06-27T10:14:59.666Z,29.94
2019-06-27T10:15:59.667Z,30.05
2019-06-27T10:16:59.650Z,30.05
2019-06-27T10:17:59.642Z,30.05
2019-06-27T10:19:04.656Z,30.02
2019-06-27T10:19:59.624Z,29.94
2019-06-27T10:20:59.645Z,29.94
2019-06-27T10:21:59.591Z,29.86
2019-06-27T10:22:59.586Z,29.92
2019-06-27T10:23:59.574Z,30.00
2019-06-27T10:24:59.568Z,30.02
2019-06-27T10:25:59.569Z,30.02
2019-06-27T10:26:59.545Z,30.04
2019-06-27T10:27:59.553Z,29.95
2019-06-27T10:28:59.518Z,29.90
2019-06-27T10:30:04.546Z,30.04
2019-06-27T10:30:59.510Z,30.02
2019-06-27T10:31:59.507Z,30.08
2019-06-27T10:33:00.397Z,30.11
2019-06-27T10:33:59.472Z,30.11
2019-06-27T10:34:59.477Z,30.11
2019-06-27T10:35:59.485Z,30.05
2019-06-27T10:36:59.454Z,30.13
2019-06-27T10:37:59.439Z,30.05
2019-06-27T10:38:59.425Z,30.17
2019-06-27T10:39:59.396Z,30.15
2019-06-27T10:41:04.427Z,30.10
2019-06-27T10:41:59.376Z,30.05
2019-06-27T10:42:59.382Z,30.07
2019-06-27T10:43:59.374Z,30.10
2019-06-27T10:44:59.354Z,30.22
2019-06-27T10:45:59.347Z,30.20
2019-06-27T10:46:59.324Z,30.17
2019-06-27T10:47:59.312Z,30.26
2019-06-27T10:48:59.360Z,30.38
2019-06-27T10:49:59.291Z,30.29
2019-06-27T10:50:59.315Z,30.42
2019-06-27T10:52:04.297Z,30.38
2019-06-27T10:52:59.264Z,30.42
2019-06-27T10:53:59.255Z,30.34
2019-06-27T10:54:59.273Z,30.38
2019-06-27T10:55:59.297Z,30.45
2019-06-27T10:56:59.221Z,30.46
2019-06-27T10:57:59.339Z,30.49
2019-06-27T10:58:59.203Z,30.67
2019-06-27T10:59:59.191Z,30.72
2019-06-27T11:00:59.197Z,30.77
2019-06-27T11:01:59.184Z,30.77
2019-06-27T11:03:14.880Z,30.72
2019-06-27T11:04:00.198Z,30.82
2019-06-27T11:04:59.157Z,30.84
2019-06-27T11:05:59.134Z,30.98
2019-06-27T11:06:59.142Z,30.99
2019-06-27T11:07:59.101Z,31.13
2019-06-27T11:08:59.093Z,31.17
2019-06-27T11:09:59.099Z,31.21
2019-06-27T11:10:59.083Z,31.35
2019-06-27T11:11:59.088Z,31.46
2019-06-27T11:12:59.681Z,31.58
2019-06-27T11:14:04.082Z,31.75
2019-06-27T11:14:59.951Z,32.11
2019-06-27T11:15:59.015Z,32.37
2019-06-27T11:16:59.029Z,32.56
2019-06-27T11:17:58.995Z,32.52
2019-06-27T11:18:58.990Z,32.59
2019-06-27T11:19:58.993Z,32.84
2019-06-27T11:20:58.961Z,33.00
2019-06-27T11:21:58.962Z,33.23
2019-06-27T11:22:58.937Z,33.49
2019-06-27T11:23:58.928Z,33.63
2019-06-27T11:25:03.955Z,33.95
2019-06-27T11:25:58.935Z,34.09
2019-06-27T11:26:58.994Z,34.44
2019-06-27T11:27:58.908Z,34.69
2019-06-27T11:28:58.907Z,34.69
2019-06-27T11:29:58.894Z,34.80
2019-06-27T11:30:58.898Z,34.97
2019-06-27T11:31:58.870Z,35.15
2019-06-27T11:32:58.843Z,35.28
2019-06-27T11:33:58.846Z,35.19
2019-06-27T11:34:58.827Z,35.41
2019-06-27T11:35:58.809Z,35.31
2019-06-27T11:36:59.010Z,35.36
2019-06-27T11:38:03.813Z,35.53
2019-06-27T11:38:58.817Z,35.71
2019-06-27T11:39:58.772Z,36.12
2019-06-27T11:40:58.768Z,36.44
2019-06-27T11:41:58.777Z,36.56
2019-06-27T11:42:58.743Z,36.57
2019-06-27T11:43:58.730Z,36.78
2019-06-27T11:44:58.721Z,36.99
2019-06-27T11:45:58.713Z,37.02
2019-06-27T11:46:58.740Z,36.81
2019-06-27T11:47:58.704Z,36.62
2019-06-27T11:49:03.706Z,36.41
2019-06-27T11:49:58.693Z,36.62
2019-06-27T11:50:58.687Z,36.38
2019-06-27T11:51:58.685Z,36.56
2019-06-27T11:52:58.646Z,36.54
2019-06-27T11:53:58.650Z,36.54
2019-06-27T11:54:58.626Z,36.47
2019-06-27T11:55:58.672Z,36.60
2019-06-27T11:56:58.608Z,36.73
2019-06-27T11:57:58.614Z,36.88
2019-06-27T11:58:58.596Z,36.80
2019-06-27T12:00:03.601Z,36.69
2019-06-27T12:00:58.599Z,36.60
2019-06-27T12:01:58.583Z,36.93
2019-06-27T12:02:58.578Z,37.10
2019-06-27T12:03:58.537Z,36.78
2019-06-27T12:04:58.533Z,36.44
2019-06-27T12:05:58.517Z,36.35
2019-06-27T12:06:58.517Z,36.00
2019-06-27T12:07:58.558Z,36.05
2019-06-27T12:08:58.521Z,36.32
2019-06-27T12:09:58.492Z,36.44
2019-06-27T12:11:03.494Z,36.66
2019-06-27T12:11:58.482Z,36.95
2019-06-27T12:12:58.472Z,37.02
2019-06-27T12:13:58.458Z,37.00
2019-06-27T12:14:58.438Z,37.24
2019-06-27T12:15:58.497Z,37.47
2019-06-27T12:16:58.432Z,37.50
2019-06-27T12:17:58.442Z,37.63
2019-06-27T12:18:58.407Z,37.69
2019-06-27T12:19:58.390Z,37.66
2019-06-27T12:20:58.378Z,37.72
2019-06-27T12:22:03.425Z,37.55
2019-06-27T12:22:58.375Z,37.63
2019-06-27T12:23:58.358Z,37.67
2019-06-27T12:24:58.368Z,37.78
2019-06-27T12:25:58.348Z,37.74
2019-06-27T12:26:58.326Z,37.37
2019-06-27T12:27:58.334Z,37.13
2019-06-27T12:28:58.342Z,36.95
2019-06-27T12:29:58.317Z,37.03
2019-06-27T12:30:58.302Z,37.02
2019-06-27T12:31:58.289Z,36.41
2019-06-27T12:33:03.304Z,36.16
2019-06-27T12:34:06.736Z,35.92
2019-06-27T12:34:59.266Z,35.50
2019-06-27T12:35:58.287Z,35.28
2019-06-27T12:36:58.229Z,34.91
2019-06-27T12:37:58.244Z,34.54
2019-06-27T12:38:58.246Z,34.27
2019-06-27T12:39:58.223Z,34.16
2019-06-27T12:40:58.195Z,34.00
2019-06-27T12:41:58.178Z,33.66
2019-06-27T12:42:58.187Z,33.53
2019-06-27T12:44:03.185Z,33.53
2019-06-27T12:44:58.171Z,33.47
2019-06-27T12:45:58.155Z,33.38
2019-06-27T12:46:58.126Z,33.23
2019-06-27T12:48:06.076Z,33.04
2019-06-27T12:48:59.113Z,32.96
2019-06-27T12:50:02.545Z,32.87
2019-06-27T12:50:58.106Z,32.74
2019-06-27T12:51:58.077Z,32.79